Home > Products > Valid Products > TAF

000
FTUS43 KFGF 180500
TAFGFK
TAF
KGFK 180522Z 1806/1906 10007KT P6SM OVC100
     FM181400 13014KT P6SM OVC100
     FM181700 13024G30KT P6SM OVC100=



000
FTUS43 KFGF 180500
TAFFAR
TAF
KFAR 180522Z 1806/1906 08008KT P6SM SCT100
     FM181400 13014KT P6SM OVC100
     FM181700 13022G29KT P6SM OVC100=



000
FTUS43 KFGF 172300
TAFFAR
TAF
KFAR 172322Z 1800/1824 VRB05KT P6SM SKC
     FM180200 08008KT P6SM SCT100
     FM181400 13014KT P6SM OVC100
     FM181700 13022G29KT P6SM OVC100=



000
FTUS43 KFGF 172300
TAFGFK
TAF
KGFK 172322Z 1800/1824 06007KT P6SM SKC
     FM180200 10007KT P6SM SCT100
     FM181400 13014KT P6SM OVC100
     FM181700 13024G30KT P6SM OVC100=



000
FTUS43 KFGF 171700
TAFGFK
TAF
KGFK 171725Z 1718/1818 03007KT P6SM SKC
     FM180100 08007KT P6SM SCT100
     FM181400 13014KT P6SM SCT060=



000
FTUS43 KFGF 171700
TAFFAR
TAF
KFAR 171725Z 1718/1818 02006KT P6SM SKC
     FM180200 08008KT P6SM SCT100
     FM181400 13014KT P6SM BKN060=



000
FTUS43 KFGF 171100
TAFFAR
TAF
KFAR 171135Z 1712/1812 35007KT P6SM SKC
     FM171700 02006KT P6SM SKC
     FM180200 08008KT P6SM SCT100=



000
FTUS43 KFGF 171100
TAFGFK
TAF
KGFK 171135Z 1712/1812 34007KT P6SM SKC
     FM171700 03007KT P6SM SKC
     FM180100 08007KT P6SM SCT100=



000
FTUS43 KFGF 170500
TAFFAR
TAF
KFAR 170521Z 1706/1806 01011KT P6SM SKC=



000
FTUS43 KFGF 170500
TAFGFK
TAF
KGFK 170521Z 1706/1806 35009KT P6SM SKC=



000
FTUS43 KFGF 162300
TAFGFK
TAF
KGFK 162323Z 1700/1724 05015G23KT P6SM SKC
     FM170200 01007KT P6SM SKC=



000
FTUS43 KFGF 162300
TAFFAR
TAF
KFAR 162323Z 1700/1724 05014KT P6SM BKN060
     FM170200 02010KT P6SM FEW060=



000
FTUS43 KFGF 161700
TAFGFK
TAF
KGFK 161738Z 1618/1718 05017G26KT P6SM SCT090
     FM170200 01011KT P6SM SCT250
     FM171200 01006KT P6SM SCT250=



000
FTUS43 KFGF 161700
TAFFAR
TAF
KFAR 161738Z 1618/1718 06017G26KT P6SM BKN045
     FM170300 02012KT P6SM BKN060
     FM171100 36007KT P6SM BKN250=



000
FTUS43 KFGF 161400 AAA
TAFFAR
TAF AMD
KFAR 161427Z 1614/1712 05017G23KT P6SM OVC040
     FM161700 04022G30KT P6SM BKN050
     FM170300 02012KT P6SM BKN060=



000
FTUS43 KFGF 161100
TAFFAR
TAF
KFAR 161120Z 1612/1712 07013KT 2SM -SN OVC030
      TEMPO 1612/1613 1SM -SN
     FM161300 05015G23KT 4SM -SN OVC025
     FM161700 04022G30KT P6SM BKN035
     FM170300 02012KT P6SM BKN060=



000
FTUS43 KFGF 161100
TAFGFK
TAF
KGFK 161120Z 1612/1712 07012G20KT P6SM OVC060
     FM161800 04022G28KT P6SM OVC050
     FM170200 01011KT P6SM SCT250=



000
FTUS43 KFGF 160800 AAA
TAFFAR
TAF AMD
KFAR 160832Z 1609/1706 08015KT 1SM -SN OVC025
      TEMPO 1609/1611 2SM -SN
     FM161100 05015G23KT 4SM -SN OVC025
     FM161700 04022G30KT P6SM BKN035=



000
FTUS43 KFGF 160500
TAFGFK
TAF
KGFK 160520Z 1606/1706 08015KT P6SM BKN080
     FM161100 07018G25KT P6SM OVC050
     FM161800 04022G28KT P6SM OVC050
     FM170200 04013KT P6SM SCT250=



000
FTUS43 KFGF 160500
TAFFAR
TAF
KFAR 160520Z 1606/1706 08015KT P6SM OVC050
     FM161100 05015G23KT 4SM -SN OVC025
     FM161700 04022G30KT P6SM BKN035=



000
FTUS43 KFGF 152300
TAFFAR
TAF
KFAR 152338Z 1600/1624 13012KT P6SM BKN080
     FM160600 08018G25KT P6SM OVC050
     FM161100 05018G27KT 4SM -SN OVC025
     FM161700 04022G30KT P6SM BKN035=



000
FTUS43 KFGF 152300
TAFGFK
TAF
KGFK 152338Z 1600/1624 14012KT P6SM BKN100
     FM160600 08015G24KT P6SM BKN080
     FM161800 04018G28KT P6SM OVC080=



000
FTUS43 KFGF 151700
TAFFAR
TAF
KFAR 151726Z 1518/1618 13008KT P6SM BKN100
     FM152200 13014KT P6SM BKN080
     FM160600 08020G30KT 3SM -SN BKN035
     FM161200 03016G25KT 5SM -SN OVC015=



000
FTUS43 KFGF 151700
TAFGFK
TAF
KGFK 151726Z 1518/1618 15008KT P6SM BKN100
     FM152100 14012KT P6SM BKN080
     FM160600 08015G24KT P6SM BKN050
     FM161200 04018G24KT P6SM OVC020=



000
FTUS43 KFGF 151100
TAFGFK
TAF
KGFK 151135Z 1512/1612 VRB04KT P6SM SCT200
     FM151500 15008KT P6SM BKN100
     FM151900 14012G20KT P6SM BKN080
     FM160300 08015G24KT P6SM BKN050=



000
FTUS43 KFGF 151100
TAFFAR
TAF
KFAR 151135Z 1512/1612 VRB04KT P6SM FEW200
     FM151500 15010KT P6SM BKN100
     FM151900 13014G20KT P6SM BKN080
     FM160200 08020G30KT 4SM -SN BKN035=



    US Dept of Commerce
    National Oceanic and Atmospheric Administration
    National Weather Service
    1325 East West Highway
    Silver Spring, MD 20910
    Page Author: NWS Internet Services Team
Disclaimer
Information Quality
Credits
Glossary
Privacy Policy
Freedom of Information Act (FOIA)
About Us
Career Opportunities